Time;durP1;ratioP1;P1;durP2;ratioP2;P2;SDS_P1;SDS_P2;PMS_P1;PMS_P2;Temp;Humidity;BMP_temperature;BMP_pressure;BME280_temperature;BME280_humidity;BME280_pressure;Samples;Min_cycle;Max_cycle;Signal;HPM_P1;HPM_P2
2022/11/07 07:06:05;;;;;;;11.02;3.65;;;;;;;11.08;100.00;100693.66;5308532;27;20359;-70
2022/11/07 07:08:37;;;;;;;9.43;3.55;;;;;;;11.10;100.00;100693.38;5308013;28;20561;-71
2022/11/07 07:11:11;;;;;;;10.90;3.15;;;;;;;11.13;100.00;100698.34;5298687;28;20070;-72
2022/11/07 07:13:42;;;;;;;14.13;4.22;;;;;;;11.16;100.00;100700.50;5301178;28;20024;-71
2022/11/07 07:16:13;;;;;;;11.07;3.17;;;;;;;11.20;100.00;100707.13;5286860;28;20522;-72
2022/11/07 07:18:45;;;;;;;10.52;3.50;;;;;;;11.21;100.00;100710.72;5293926;28;20028;-71
2022/11/07 07:21:16;;;;;;;13.25;3.95;;;;;;;11.24;100.00;100710.94;5287519;28;20025;-71
2022/11/07 07:23:47;;;;;;;10.60;3.55;;;;;;;11.26;100.00;100719.81;5279403;28;20031;-72
2022/11/07 07:26:19;;;;;;;10.02;3.40;;;;;;;11.30;100.00;100720.88;5283542;28;20028;-71
2022/11/07 07:28:50;;;;;;;11.60;3.38;;;;;;;11.35;100.00;100721.91;5299961;28;20060;-72
2022/11/07 07:31:25;;;;;;;13.45;3.47;;;;;;;11.38;100.00;100727.72;5285469;28;20351;-72
2022/11/07 07:33:57;;;;;;;12.57;3.70;;;;;;;11.41;100.00;100721.56;5279790;28;20044;-72
2022/11/07 07:36:28;;;;;;;10.07;3.35;;;;;;;11.42;100.00;100722.38;5278933;28;20021;-72
2022/11/07 07:38:59;;;;;;;9.50;3.92;;;;;;;11.45;100.00;100721.78;5296027;28;20025;-73
2022/11/07 07:41:31;;;;;;;12.02;3.95;;;;;;;11.47;100.00;100725.09;5297763;28;20059;-73
2022/11/07 07:44:02;;;;;;;8.30;2.97;;;;;;;11.49;100.00;100733.94;5298400;28;20046;-72
2022/11/07 07:46:33;;;;;;;12.93;4.35;;;;;;;11.51;100.00;100731.72;5300594;28;20027;-72
2022/11/07 07:49:05;;;;;;;9.52;3.70;;;;;;;11.52;100.00;100739.72;5291041;28;20024;-72
2022/11/07 07:51:36;;;;;;;10.95;3.15;;;;;;;11.54;100.00;100737.47;5295935;28;20035;-71
2022/11/07 07:54:10;;;;;;;10.20;3.05;;;;;;;11.55;100.00;100741.06;5300613;28;20028;-71
2022/11/07 07:56:41;;;;;;;9.35;3.20;;;;;;;11.56;100.00;100742.75;5299922;28;20062;-72
2022/11/07 07:59:13;;;;;;;12.25;3.47;;;;;;;11.59;100.00;100746.88;5289068;28;20353;-72
2022/11/07 08:01:44;;;;;;;11.90;3.40;;;;;;;11.62;100.00;100752.66;5293033;28;20024;-71
2022/11/07 08:04:15;;;;;;;15.77;4.20;;;;;;;11.67;100.00;100758.13;5299014;28;20131;-71
2022/11/07 08:06:46;;;;;;;10.85;3.35;;;;;;;11.69;100.00;100744.78;5292869;28;20043;-72
2022/11/07 08:09:20;;;;;;;12.90;3.58;;;;;;;11.71;100.00;100750.88;5298266;28;20063;-72
2022/11/07 08:11:51;;;;;;;11.80;3.80;;;;;;;11.72;100.00;100754.47;5292977;28;20035;-72
2022/11/07 08:14:23;;;;;;;11.45;3.50;;;;;;;11.73;100.00;100745.84;5321514;28;20023;-72
2022/11/07 08:16:55;;;;;;;8.77;3.72;;;;;;;11.75;100.00;100746.34;5295071;28;20376;-72
2022/11/07 08:19:26;;;;;;;13.25;3.22;;;;;;;11.80;100.00;100748.22;5285148;28;20060;-71
2022/11/07 08:21:58;;;;;;;10.32;4.03;;;;;;;11.85;100.00;100744.56;5285439;28;20079;-72
2022/11/07 08:24:29;;;;;;;11.07;3.08;;;;;;;11.87;100.00;100757.06;5266338;28;20025;-71
2022/11/07 08:27:00;;;;;;;13.80;3.92;;;;;;;11.88;100.00;100755.09;5264353;28;20087;-72
2022/11/07 08:29:31;;;;;;;11.23;3.25;;;;;;;11.88;100.00;100760.66;5300226;28;20060;-71
2022/11/07 08:32:03;;;;;;;11.07;3.53;;;;;;;11.83;100.00;100766.25;5293654;28;20104;-70
2022/11/07 08:34:34;;;;;;;11.23;4.00;;;;;;;11.82;100.00;100765.44;5274506;28;20048;-71
2022/11/07 08:37:06;;;;;;;6.97;3.10;;;;;;;11.80;100.00;100762.13;5301033;28;20063;-71
2022/11/07 08:39:37;;;;;;;12.63;3.03;;;;;;;11.83;100.00;100761.50;5304432;28;20032;-72
2022/11/07 08:42:08;;;;;;;9.85;3.38;;;;;;;11.84;100.00;100763.19;5305331;28;20028;-71
2022/11/07 08:44:40;;;;;;;9.70;3.50;;;;;;;11.87;100.00;100764.56;5283373;28;20020;-71
2022/11/07 08:47:11;;;;;;;8.88;3.53;;;;;;;11.89;100.00;100774.25;5279856;28;20027;-71
2022/11/07 08:49:45;;;;;;;9.23;3.67;;;;;;;11.93;100.00;100778.06;5306261;28;20024;-71
2022/11/07 08:52:16;;;;;;;9.98;2.97;;;;;;;11.96;100.00;100783.06;5281891;28;20115;-71
2022/11/07 08:54:47;;;;;;;10.98;3.88;;;;;;;12.01;100.00;100782.13;5284144;28;20104;-71
2022/11/07 08:57:19;;;;;;;13.30;3.88;;;;;;;12.05;100.00;100783.19;5275729;28;20017;-71
2022/11/07 08:59:52;;;;;;;12.60;4.15;;;;;;;12.07;100.00;100789.28;5264543;28;20506;-71
2022/11/07 09:02:24;;;;;;;12.98;3.97;;;;;;;12.12;100.00;100788.38;5263729;28;20438;-71
2022/11/07 09:04:58;;;;;;;13.23;4.25;;;;;;;12.12;100.00;100805.06;5301917;28;20044;-71
2022/11/07 09:07:29;;;;;;;12.15;3.75;;;;;;;12.13;100.00;100801.97;5304879;28;20024;-71
2022/11/07 09:10:01;;;;;;;8.65;3.47;;;;;;;12.15;100.00;100799.72;5287246;28;20033;-71
2022/11/07 09:12:32;;;;;;;11.10;4.43;;;;;;;12.19;100.00;100805.47;5284746;28;20472;-72
2022/11/07 09:15:04;;;;;;;11.27;3.28;;;;;;;12.20;100.00;100811.91;5268787;28;20021;-72
2022/11/07 09:17:35;;;;;;;15.68;4.30;;;;;;;12.20;100.00;100806.34;5263617;28;20025;-71
2022/11/07 09:20:08;;;;;;;10.40;3.95;;;;;;;12.21;100.00;100816.31;5275273;28;20491;-71
2022/11/07 09:22:39;;;;;;;10.23;3.15;;;;;;;12.24;100.00;100807.38;5283062;28;20090;-69
2022/11/07 09:25:11;;;;;;;10.88;4.07;;;;;;;12.27;100.00;100820.66;5284419;28;20475;-71
2022/11/07 09:27:42;;;;;;;10.82;3.45;;;;;;;12.30;100.00;100814.53;5283526;28;20043;-76
2022/11/07 09:30:14;;;;;;;11.18;3.70;;;;;;;12.46;100.00;100823.44;5276814;28;20016;-72
2022/11/07 09:32:45;;;;;;;11.80;3.33;;;;;;;12.37;100.00;100820.50;5274962;28;20053;-70
2022/11/07 09:35:17;;;;;;;9.95;3.40;;;;;;;12.42;100.00;100823.19;5280007;28;20024;-70
2022/11/07 09:37:49;;;;;;;6.38;3.20;;;;;;;12.42;100.00;100823.19;5283952;28;20044;-71
2022/11/07 09:40:40;;;;;;;8.85;3.00;;;;;;;12.44;100.00;100823.72;5282160;28;20029;-71
2022/11/07 09:43:27;;;;;;;11.50;3.35;;;;;;;12.45;100.00;100813.41;5272632;28;20490;-70
2022/11/07 09:45:58;;;;;;;13.10;3.22;;;;;;;12.47;100.00;100819.50;5282989;28;20040;-70
2022/11/07 09:48:41;;;;;;;11.27;3.70;;;;;;;12.48;100.00;100822.00;5282229;28;20081;-71
2022/11/07 09:51:27;;;;;;;8.20;3.33;;;;;;;12.49;100.00;100820.88;5280555;28;20042;-71
2022/11/07 09:54:02;;;;;;;;;;;;;;;12.56;100.00;100824.09;5279304;28;20028;-71
2022/11/07 09:56:34;;;;;;;7.80;2.97;;;;;;;12.53;100.00;100827.50;5295790;28;20355;-71
2022/11/07 09:59:09;;;;;;;10.93;3.30;;;;;;;12.56;100.00;100814.94;5302579;28;20028;-71
2022/11/07 10:01:40;;;;;;;7.50;2.80;;;;;;;12.58;100.00;100827.41;5277015;28;20048;-71
2022/11/07 10:04:15;;;;;;;9.50;3.55;;;;;;;12.62;100.00;100827.59;5302979;28;20078;-70
2022/11/07 10:06:54;;;;;;;9.40;3.55;;;;;;;12.68;100.00;100826.41;5288272;28;20040;-71
2022/11/07 10:10:10;;;;;;;10.25;3.85;;;;;;;12.71;100.00;100819.41;5304486;28;20044;-71
2022/11/07 10:13:13;;;;;;;9.00;3.65;;;;;;;12.73;100.00;100828.25;5288152;28;20098;-70
2022/11/07 10:15:47;;;;;;;10.07;3.05;;;;;;;12.77;100.00;100832.09;5276456;28;20047;-69
2022/11/07 10:18:24;;;;;;;8.55;3.47;;;;;;;12.75;100.00;100831.56;5282509;28;20036;-71
2022/11/07 10:21:34;;;;;;;13.25;4.80;;;;;;;12.81;99.65;100830.38;5283394;28;20410;-71
2022/11/07 10:24:24;;;;;;;9.82;3.58;;;;;;;12.84;99.70;100829.75;5251046;28;20048;-72
2022/11/07 10:26:58;;;;;;;8.68;3.20;;;;;;;12.87;98.61;100840.25;5263110;28;20025;-73
2022/11/07 10:29:51;;;;;;;13.68;4.05;;;;;;;12.92;98.91;100842.13;5275447;28;20021;-72
2022/11/07 10:32:33;;;;;;;13.35;5.20;;;;;;;12.95;97.77;100835.97;5266619;28;20025;-72
2022/11/07 10:35:25;;;;;;;11.77;4.03;;;;;;;12.98;98.00;100840.91;5280456;28;20029;-70
2022/11/07 10:38:00;;;;;;;12.10;3.55;;;;;;;13.02;97.92;100842.78;5281724;28;20077;-70
2022/11/07 10:40:41;;;;;;;13.40;3.53;;;;;;;13.04;97.56;100853.63;5280926;28;20151;-70
2022/11/07 10:43:24;;;;;;;10.35;3.33;;;;;;;13.09;97.59;100847.09;5267900;28;20025;-70
2022/11/07 10:45:56;;;;;;;13.93;3.15;;;;;;;13.11;97.31;100853.19;5263660;28;20025;-70
2022/11/07 10:48:28;;;;;;;13.65;3.40;;;;;;;13.16;96.28;100847.53;5280652;28;20036;-70
2022/11/07 10:50:59;;;;;;;14.70;7.43;;;;;;;13.17;96.21;100849.22;5271241;28;20020;-70
2022/11/07 10:53:31;;;;;;;11.02;2.97;;;;;;;13.19;95.00;100852.47;5265500;28;20024;-71
2022/11/07 10:56:11;;;;;;;12.07;3.80;;;;;;;13.22;94.87;100858.28;5261205;28;20480;-72
2022/11/07 10:58:44;;;;;;;14.77;3.17;;;;;;;13.23;95.00;100861.88;5266851;28;20086;-72
2022/11/07 11:01:23;;;;;;;14.00;3.38;;;;;;;13.25;94.85;100867.97;5274127;28;20044;-72
2022/11/07 11:03:54;;;;;;;16.42;7.82;;;;;;;13.27;94.56;100865.75;5282757;28;20127;-71
2022/11/07 11:06:29;;;;;;;8.70;2.88;;;;;;;13.26;93.98;100864.06;5276153;28;20096;-71
2022/11/07 11:09:13;;;;;;;13.30;3.72;;;;;;;13.26;93.88;100864.06;5279619;28;20028;-72
2022/11/07 11:11:49;;;;;;;8.57;3.00;;;;;;;13.29;93.78;100857.91;5266623;28;20431;-71
2022/11/07 11:14:21;;;;;;;12.43;3.22;;;;;;;13.28;94.00;100856.25;5281524;28;20482;-72
2022/11/07 11:16:54;;;;;;;16.60;3.70;;;;;;;13.28;93.71;100859.03;5304322;28;20035;-72
2022/11/07 11:19:32;;;;;;;11.70;3.45;;;;;;;13.29;93.40;100845.94;5284249;28;20025;-72
2022/11/07 11:22:13;;;;;;;13.55;3.47;;;;;;;13.34;93.54;100854.19;5275500;28;20029;-72
2022/11/07 11:24:56;;;;;;;10.10;3.30;;;;;;;13.35;93.60;100844.72;5269045;28;20028;-70
2022/11/07 11:27:33;;;;;;;9.50;3.92;;;;;;;13.37;93.38;100845.22;5278735;28;20039;-71
2022/11/07 11:30:14;;;;;;;10.65;3.63;;;;;;;13.43;93.40;100847.59;5274780;28;20033;-71
2022/11/07 11:32:56;;;;;;;13.80;7.88;;;;;;;13.46;92.22;100840.59;5282115;28;20033;-73
2022/11/07 11:35:30;;;;;;;8.25;3.22;;;;;;;13.54;92.33;100847.41;5281997;28;20035;-70
2022/11/07 11:38:15;;;;;;;44.13;38.83;;;;;;;13.57;92.16;100832.84;5281598;28;20033;-70
2022/11/07 11:41:06;;;;;;;19.38;4.82;;;;;;;13.61;92.25;100837.50;5262719;28;20037;-71
2022/11/07 11:43:51;;;;;;;11.57;3.92;;;;;;;13.61;91.89;100833.88;5275246;28;20060;-71
2022/11/07 11:46:29;;;;;;;9.00;3.60;;;;;;;13.64;90.66;100830.47;5262483;28;20518;-71
2022/11/07 11:49:11;;;;;;;10.30;3.10;;;;;;;13.69;91.04;100830.34;5274069;28;20032;-70
2022/11/07 11:51:48;;;;;;;8.95;3.25;;;;;;;13.74;90.99;100829.44;5284196;28;20025;-70
2022/11/07 11:54:20;;;;;;;7.78;2.90;;;;;;;13.83;90.17;100833.13;5279334;28;20037;-70
2022/11/07 11:56:59;;;;;;;10.30;3.65;;;;;;;13.83;90.32;100845.13;5264850;28;20034;-70
2022/11/07 11:59:43;;;;;;;11.45;3.60;;;;;;;13.85;89.74;100840.03;5272509;28;20037;-70
2022/11/07 12:02:32;;;;;;;8.43;2.85;;;;;;;13.87;89.07;100826.63;5283863;28;20086;-71
2022/11/07 12:05:28;;;;;;;11.82;4.30;;;;;;;13.88;89.37;100841.38;5283529;28;20480;-70
2022/11/07 12:08:05;;;;;;;10.13;3.10;;;;;;;13.89;89.81;100838.28;5294058;28;20067;-71
2022/11/07 12:11:11;;;;;;;13.65;5.50;;;;;;;13.92;89.96;100834.88;5293985;28;20029;-70
2022/11/07 12:14:20;;;;;;;23.92;15.95;;;;;;;13.92;89.52;100836.84;5264625;28;20035;-71
2022/11/07 12:17:04;;;;;;;14.40;5.07;;;;;;;13.99;89.42;100830.84;5264942;28;20498;-71
2022/11/07 12:19:50;;;;;;;13.68;6.20;;;;;;;14.05;89.29;100843.53;5285670;28;20125;-68
2022/11/07 12:22:55;;;;;;;11.02;3.88;;;;;;;14.07;88.49;100839.28;5267419;28;20029;-69
2022/11/07 12:25:49;;;;;;;12.40;3.30;;;;;;;14.05;88.41;100835.97;5302083;28;20032;-71
2022/11/07 12:28:26;;;;;;;9.63;3.08;;;;;;;14.06;88.81;100831.22;5285606;28;20104;-71
2022/11/07 12:31:38;;;;;;;8.68;3.10;;;;;;;14.07;88.19;100846.81;5284698;28;20048;-71
2022/11/07 12:34:14;;;;;;;9.82;4.45;;;;;;;14.07;88.24;100844.03;5273575;28;20129;-70
2022/11/07 12:37:32;;;;;;;12.90;3.40;;;;;;;14.13;88.15;100840.00;5264877;28;20029;-70
2022/11/07 12:40:19;;;;;;;;;;;;;;;14.18;88.73;100831.50;5263839;28;20031;-68
2022/11/07 12:43:04;;;;;;;;;;;;;;;14.23;88.23;100841.72;5282036;28;19916;-67
2022/11/07 12:46:11;;;;;;;10.27;3.33;;;;;;;14.19;88.74;100838.75;5294081;28;19912;-68
2022/11/07 12:48:51;;;;;;;13.70;5.22;;;;;;;14.15;87.96;100837.72;5290696;28;20480;-69
2022/11/07 12:51:28;;;;;;;10.52;3.50;;;;;;;14.12;88.32;100841.94;5284418;28;20560;-68
2022/11/07 12:54:32;;;;;;;13.55;3.35;;;;;;;14.12;88.71;100847.53;5264030;28;20456;-70
2022/11/07 12:57:24;;;;;;;9.93;3.30;;;;;;;14.19;88.69;100827.59;5264140;28;20028;-70
2022/11/07 13:00:16;;;;;;;9.45;3.55;;;;;;;14.16;88.65;100833.78;5263200;28;20392;-69
2022/11/07 13:03:09;;;;;;;10.05;3.92;;;;;;;14.15;89.00;100823.78;5279006;28;20021;-69
2022/11/07 13:06:07;;;;;;;7.63;3.22;;;;;;;14.15;89.34;100826.56;5295919;28;20536;-68
2022/11/07 13:08:58;;;;;;;13.88;4.85;;;;;;;14.17;88.87;100815.91;5282832;28;20035;-69
2022/11/07 13:11:37;;;;;;;11.43;3.58;;;;;;;14.17;89.26;100818.72;5267382;28;20029;-69
2022/11/07 13:14:40;;;;;;;13.35;4.55;;;;;;;14.19;88.80;100822.00;5281789;28;20033;-69
2022/11/07 13:17:13;;;;;;;13.82;4.45;;;;;;;14.17;88.66;100821.50;5282231;28;20453;-69
2022/11/07 13:20:22;;;;;;;10.02;4.18;;;;;;;14.18;89.93;100822.31;5282292;28;20034;-68
2022/11/07 13:22:57;;;;;;;10.68;4.05;;;;;;;14.13;89.50;100818.50;5272847;28;20476;-71
2022/11/07 13:25:33;;;;;;;10.50;3.42;;;;;;;14.18;90.41;100819.53;5283393;28;20059;-69
2022/11/07 13:28:35;;;;;;;9.52;3.72;;;;;;;14.13;90.60;100820.47;5267416;28;20025;-70
2022/11/07 13:31:52;;;;;;;12.00;3.55;;;;;;;14.15;90.62;100818.19;5263081;28;20424;-70
2022/11/07 13:34:25;;;;;;;8.35;3.47;;;;;;;14.15;90.28;100809.81;5259397;28;20071;-70
2022/11/07 13:37:02;;;;;;;10.93;3.78;;;;;;;14.19;90.04;100810.00;5263441;28;20033;-70
2022/11/07 13:39:34;;;;;;;9.10;3.72;;;;;;;14.17;89.52;100815.09;5273514;28;20027;-71
2022/11/07 13:42:05;;;;;;;10.02;6.80;;;;;;;14.22;90.12;100809.41;5281806;28;20020;-69
2022/11/07 13:44:37;;;;;;;13.02;8.48;;;;;;;14.27;89.84;100812.06;5266829;28;20120;-69
2022/11/07 13:47:18;;;;;;;11.77;2.90;;;;;;;14.24;89.15;100807.09;5263446;28;20194;-69
2022/11/07 13:49:50;;;;;;;6.72;2.92;;;;;;;14.27;89.38;100807.31;5274707;28;20021;-70
2022/11/07 13:52:36;;;;;;;9.80;2.95;;;;;;;14.29;89.16;100802.25;5290115;28;20043;-70
2022/11/07 13:55:16;;;;;;;8.82;2.90;;;;;;;14.27;88.61;100804.53;5301905;28;20344;-69
2022/11/07 13:57:56;;;;;;;6.55;2.60;;;;;;;14.29;88.92;100801.41;5281531;28;20430;-70
2022/11/07 14:00:31;;;;;;;6.57;2.92;;;;;;;14.30;88.96;100803.88;5278242;28;20442;-69
2022/11/07 14:03:02;;;;;;;10.23;2.97;;;;;;;14.31;89.23;100808.31;5281533;28;20111;-68
2022/11/07 14:05:35;;;;;;;11.07;3.83;;;;;;;14.34;89.31;100806.84;5263660;28;20131;-69
2022/11/07 14:08:19;;;;;;;8.15;3.72;;;;;;;14.30;89.29;100805.84;5281721;28;20043;-69
2022/11/07 14:10:51;;;;;;;10.02;2.80;;;;;;;14.29;89.22;100802.25;5281062;28;20028;-69
2022/11/07 14:13:31;;;;;;;6.93;2.78;;;;;;;14.28;89.19;100810.91;5280529;28;20352;-70
2022/11/07 14:16:16;;;;;;;6.68;3.05;;;;;;;14.28;88.82;100805.34;5280832;28;20025;-70
2022/11/07 14:19:00;;;;;;;6.95;3.30;;;;;;;14.30;88.84;100809.47;5286029;28;20020;-74
2022/11/07 14:21:36;;;;;;;9.98;3.28;;;;;;;14.28;88.73;100806.16;5281750;28;20031;-71
2022/11/07 14:24:24;;;;;;;10.95;4.35;;;;;;;14.36;89.43;100808.19;5261858;28;20036;-72
2022/11/07 14:26:59;;;;;;;13.80;3.35;;;;;;;14.31;89.44;100815.84;5262631;28;20033;-70
2022/11/07 14:29:31;;;;;;;10.13;2.60;;;;;;;14.30;89.25;100809.47;5282368;28;20390;-69
2022/11/07 14:32:06;;;;;;;5.45;2.50;;;;;;;14.26;89.19;100814.00;5281868;28;20025;-69
2022/11/07 14:34:42;;;;;;;;;;;;;;;14.31;89.49;100819.47;5271189;28;20365;-68
2022/11/07 14:37:17;;;;;;;6.65;2.80;;;;;;;14.26;89.69;100815.97;5262681;28;20340;-69
2022/11/07 14:39:50;;;;;;;10.75;3.10;;;;;;;14.26;89.67;100814.00;5262504;28;20040;-69
2022/11/07 14:42:23;;;;;;;6.78;2.70;;;;;;;14.38;91.05;100809.84;5280206;28;20063;-69
2022/11/07 14:44:56;;;;;;;8.40;2.78;;;;;;;14.26;90.26;100808.44;5268270;28;20044;-70
2022/11/07 14:47:31;;;;;;;10.75;2.63;;;;;;;14.26;90.35;100802.84;5272167;28;20032;-68
2022/11/07 14:50:05;;;;;;;7.07;2.85;;;;;;;14.27;90.15;100798.13;5280412;28;20032;-69
2022/11/07 14:52:42;;;;;;;8.35;2.50;;;;;;;14.29;90.13;100805.03;5281708;28;20128;-69
2022/11/07 14:55:24;;;;;;;8.98;3.25;;;;;;;14.31;89.50;100794.38;5265590;28;20053;-69
2022/11/07 14:57:59;;;;;;;7.57;2.97;;;;;;;14.29;89.82;100804.19;5278493;28;20040;-68
2022/11/07 15:00:35;;;;;;;4.32;2.22;;;;;;;14.28;89.91;100797.78;5281816;28;20069;-69
2022/11/07 15:03:20;;;;;;;8.82;3.30;;;;;;;14.25;90.13;100795.63;5282623;28;20024;-69
2022/11/07 15:05:52;;;;;;;11.40;2.92;;;;;;;14.24;90.08;100795.94;5268589;28;20391;-68
2022/11/07 15:08:35;;;;;;;9.85;3.10;;;;;;;14.23;90.29;100803.50;5281796;28;20031;-70
2022/11/07 15:11:15;;;;;;;10.65;3.55;;;;;;;14.27;90.95;100804.53;5279096;28;20105;-69
2022/11/07 15:13:49;;;;;;;7.95;3.22;;;;;;;14.22;90.48;100803.81;5276570;28;20035;-69
2022/11/07 15:16:21;;;;;;;6.72;3.30;;;;;;;14.22;91.08;100801.84;5279412;28;20056;-69
2022/11/07 15:19:01;;;;;;;6.03;2.88;;;;;;;14.25;91.10;100806.78;5281266;28;20059;-69
2022/11/07 15:21:38;;;;;;;9.38;3.13;;;;;;;14.21;90.60;100805.75;5274097;28;20032;-70
2022/11/07 15:24:33;;;;;;;5.05;2.67;;;;;;;14.25;91.50;100806.78;5266692;28;20029;-70
2022/11/07 15:27:17;;;;;;;10.05;3.42;;;;;;;14.23;91.15;100805.47;5263827;28;20595;-70
2022/11/07 15:29:54;;;;;;;8.23;3.70;;;;;;;14.23;91.51;100803.50;5278413;28;20029;-70
2022/11/07 15:32:34;;;;;;;17.55;4.05;;;;;;;14.23;91.55;100800.69;5286282;28;20095;-71
2022/11/07 15:35:17;;;;;;;25.63;17.45;;;;;;;14.26;92.22;100805.63;5279528;28;20021;-70
2022/11/07 15:37:57;;;;;;;11.88;6.90;;;;;;;14.26;91.03;100813.19;5286032;28;20036;-70
2022/11/07 15:40:29;;;;;;;10.32;3.90;;;;;;;14.22;91.08;100813.00;5284401;28;20111;-73
2022/11/07 15:43:00;;;;;;;10.57;4.05;;;;;;;14.21;91.34;100811.34;5285335;28;20425;-74
2022/11/07 15:45:32;;;;;;;12.23;4.05;;;;;;;14.20;91.22;100809.72;5266659;28;20044;-72
2022/11/07 15:48:05;;;;;;;11.48;3.25;;;;;;;14.22;91.16;100813.00;5264697;28;20059;-70
2022/11/07 15:50:41;;;;;;;8.20;3.80;;;;;;;14.23;91.32;100811.84;5282337;28;20025;-71
2022/11/07 15:53:20;;;;;;;11.20;3.10;;;;;;;14.28;91.26;100814.53;5273364;28;20032;-71
2022/11/07 15:55:54;;;;;;;6.78;2.75;;;;;;;14.25;90.97;100801.22;5264784;28;20429;-70
2022/11/07 15:58:27;;;;;;;6.82;2.75;;;;;;;14.37;91.38;100803.47;5265913;28;20070;-72
2022/11/07 16:00:59;;;;;;;9.43;2.83;;;;;;;14.20;90.75;100806.91;5278367;28;20070;-71
2022/11/07 16:03:30;;;;;;;11.60;3.80;;;;;;;14.22;91.04;100807.44;5278379;28;20436;-72
2022/11/07 16:06:08;;;;;;;8.63;5.25;;;;;;;14.32;91.20;100806.38;5276839;28;20029;-72
2022/11/07 16:08:40;;;;;;;10.27;3.13;;;;;;;14.24;91.27;100809.88;5282385;28;20025;-69
2022/11/07 16:11:11;;;;;;;7.97;3.00;;;;;;;14.21;90.61;100805.75;5284884;28;20039;-69
2022/11/07 16:13:43;;;;;;;8.02;2.60;;;;;;;14.24;91.09;100815.47;5281966;28;20033;-69
2022/11/07 16:16:21;;;;;;;10.10;3.47;;;;;;;14.21;90.83;100805.75;5292598;28;20069;-69
2022/11/07 16:18:53;;;;;;;7.22;3.38;;;;;;;14.24;90.58;100805.16;5283703;28;20032;-70
2022/11/07 16:21:24;;;;;;;7.90;2.75;;;;;;;14.17;90.06;100810.34;5285473;28;20031;-72
2022/11/07 16:23:55;;;;;;;13.38;4.60;;;;;;;14.19;90.28;100818.38;5283778;28;20024;-71
2022/11/07 16:26:28;;;;;;;9.90;5.78;;;;;;;14.17;90.32;100823.47;5276698;28;20025;-71
2022/11/07 16:29:00;;;;;;;9.10;3.80;;;;;;;14.18;90.04;100817.56;5269577;28;20464;-72
2022/11/07 16:31:31;;;;;;;6.60;3.00;;;;;;;14.14;90.37;100819.34;5291415;28;20032;-71
2022/11/07 16:34:02;;;;;;;9.05;2.92;;;;;;;14.13;90.08;100821.28;5272943;28;20029;-71
2022/11/07 16:36:38;;;;;;;7.10;3.03;;;;;;;14.13;90.03;100824.06;5264272;28;20476;-73
